Time;durP1;ratioP1;P1;durP2;ratioP2;P2;SDS_P1;SDS_P2;PMS_P1;PMS_P2;Temp;Humidity;BMP_temperature;BMP_pressure;BME280_temperature;BME280_humidity;BME280_pressure;Samples;Min_cycle;Max_cycle;Signal;HPM_P1;HPM_P2
2021/12/22 00:01:07;;;;;;;15.10;11.27;;;;;;;;;;5095325;28;20471;-74
2021/12/22 00:03:33;;;;;;;14.37;10.40;;;;;;;;;;5095031;28;20469;-74
2021/12/22 00:05:59;;;;;;;14.73;10.10;;;;;;;;;;5094994;28;20405;-74
2021/12/22 00:08:26;;;;;;;16.10;9.87;;;;;;;;;;5110517;28;20431;-74
2021/12/22 00:10:52;;;;;;;18.07;10.37;;;;;;;;;;5095380;28;20424;-74
2021/12/22 00:13:18;;;;;;;15.53;11.10;;;;;;;;;;5094913;28;20496;-74
2021/12/22 00:15:44;;;;;;;15.77;11.43;;;;;;;;;;5094985;28;20599;-74
2021/12/22 00:18:10;;;;;;;16.53;11.80;;;;;;;;;;5094724;28;20417;-73
2021/12/22 00:20:36;;;;;;;17.77;10.83;;;;;;;;;;5094686;28;20917;-75
2021/12/22 00:23:03;;;;;;;17.50;12.27;;;;;;;;;;5094944;28;20475;-76
2021/12/22 00:25:29;;;;;;;18.13;11.07;;;;;;;;;;5094953;28;20525;-74
2021/12/22 00:27:57;;;;;;;17.03;11.23;;;;;;;;;;5094792;28;20444;-74
2021/12/22 00:30:27;;;;;;;13.33;10.57;;;;;;;;;;5094589;28;20488;-74
2021/12/22 00:32:56;;;;;;;14.83;11.07;;;;;;;;;;5094483;28;20417;-74
2021/12/22 00:35:26;;;;;;;17.57;12.83;;;;;;;;;;5094830;28;20416;-74
2021/12/22 00:37:52;;;;;;;17.10;10.17;;;;;;;;;;5094782;28;20393;-74
2021/12/22 00:40:18;;;;;;;17.83;11.17;;;;;;;;;;5094647;28;20499;-74
2021/12/22 00:42:44;;;;;;;16.03;11.17;;;;;;;;;;5094480;28;20555;-76
2021/12/22 00:45:11;;;;;;;13.10;10.63;;;;;;;;;;5094513;28;20493;-74
2021/12/22 00:47:37;;;;;;;15.20;10.53;;;;;;;;;;5094499;28;20417;-73
2021/12/22 00:50:04;;;;;;;14.33;10.90;;;;;;;;;;5094225;28;20432;-76
2021/12/22 00:52:30;;;;;;;17.73;12.00;;;;;;;;;;5094009;28;20417;-73
2021/12/22 00:54:56;;;;;;;15.93;11.70;;;;;;;;;;5094210;28;20479;-73
2021/12/22 00:57:22;;;;;;;15.27;11.50;;;;;;;;;;5094304;28;20416;-74
2021/12/22 00:59:49;;;;;;;15.47;10.60;;;;;;;;;;5093513;28;20424;-74
2021/12/22 01:02:16;;;;;;;12.80;9.70;;;;;;;;;;5093746;28;20497;-74
2021/12/22 01:04:42;;;;;;;17.93;11.17;;;;;;;;;;5094166;28;20432;-73
2021/12/22 01:07:09;;;;;;;18.20;11.97;;;;;;;;;;5093975;28;20413;-74
2021/12/22 01:09:35;;;;;;;14.53;11.60;;;;;;;;;;5094138;28;20416;-73
2021/12/22 01:12:02;;;;;;;15.73;11.20;;;;;;;;;;5093999;28;20423;-74
2021/12/22 01:14:28;;;;;;;18.20;12.17;;;;;;;;;;5094024;28;20495;-75
2021/12/22 01:16:59;;;;;;;21.63;10.90;;;;;;;;;;5094051;28;20424;-73
2021/12/22 01:19:34;;;;;;;16.67;11.43;;;;;;;;;;5094000;28;20433;-75
2021/12/22 01:22:17;;;;;;;13.53;10.17;;;;;;;;;;5093957;28;20499;-74
2021/12/22 01:24:47;;;;;;;18.10;11.50;;;;;;;;;;5093935;28;20478;-74
2021/12/22 01:27:15;;;;;;;17.97;12.00;;;;;;;;;;5093867;28;20393;-74
2021/12/22 01:29:41;;;;;;;17.10;11.60;;;;;;;;;;5093789;28;20440;-74
2021/12/22 01:32:09;;;;;;;17.90;11.70;;;;;;;;;;5093780;28;20436;-73
2021/12/22 01:34:35;;;;;;;15.57;11.13;;;;;;;;;;5093448;28;20416;-74
2021/12/22 01:37:01;;;;;;;13.60;10.60;;;;;;;;;;5094468;28;20417;-74
2021/12/22 01:39:27;;;;;;;15.30;10.70;;;;;;;;;;5093597;28;20953;-73
2021/12/22 01:41:54;;;;;;;16.23;11.03;;;;;;;;;;5093361;28;20419;-75
2021/12/22 01:45:53;;;;;;;17.67;10.80;;;;;;;;;;5093552;28;20472;-75
2021/12/22 01:50:18;;;;;;;17.87;11.53;;;;;;;;;;5093625;28;20404;-75
2021/12/22 01:52:44;;;;;;;14.10;11.40;;;;;;;;;;5092735;28;20428;-74
2021/12/22 01:55:24;;;;;;;17.47;12.13;;;;;;;;;;5093536;28;20413;-74
2021/12/22 01:57:50;;;;;;;16.97;10.13;;;;;;;;;;5093548;28;20453;-73
2021/12/22 02:00:18;;;;;;;13.40;10.13;;;;;;;;;;5109491;28;20432;-73
2021/12/22 02:02:44;;;;;;;20.73;11.53;;;;;;;;;;5108736;28;20893;-76
2021/12/22 02:05:10;;;;;;;15.60;10.10;;;;;;;;;;5093402;28;20432;-74
2021/12/22 02:07:36;;;;;;;13.50;10.63;;;;;;;;;;5093059;28;20431;-76
2021/12/22 02:10:23;;;;;;;17.70;9.83;;;;;;;;;;5093042;28;20421;-74
2021/12/22 02:12:52;;;;;;;15.30;9.87;;;;;;;;;;5112163;28;20421;-75
2021/12/22 02:15:18;;;;;;;17.17;11.57;;;;;;;;;;5097191;28;20833;-73
2021/12/22 02:17:44;;;;;;;14.23;10.77;;;;;;;;;;5097394;28;20776;-74
2021/12/22 02:20:11;;;;;;;13.00;10.10;;;;;;;;;;5097831;28;20842;-74
2021/12/22 02:22:40;;;;;;;13.30;9.97;;;;;;;;;;5097342;28;20509;-76
2021/12/22 02:25:14;;;;;;;14.00;9.83;;;;;;;;;;5097294;28;20411;-75
2021/12/22 02:27:49;;;;;;;19.30;11.77;;;;;;;;;;5096959;28;20885;-76
2021/12/22 02:30:23;;;;;;;15.80;11.50;;;;;;;;;;5096978;28;20941;-75
2021/12/22 02:35:25;;;;;;;16.43;11.30;;;;;;;;;;5097212;28;20416;-74
2021/12/22 02:37:51;;;;;;;15.53;10.80;;;;;;;;;;5096829;28;20396;-73
2021/12/22 02:40:24;;;;;;;19.30;11.47;;;;;;;;;;5096734;28;20408;-73
2021/12/22 02:42:53;;;;;;;13.70;10.37;;;;;;;;;;5097380;28;20472;-75
2021/12/22 02:45:20;;;;;;;21.13;12.33;;;;;;;;;;5096921;28;20413;-74
2021/12/22 02:47:46;;;;;;;16.67;10.97;;;;;;;;;;5096425;28;20885;-74
2021/12/22 02:50:13;;;;;;;16.43;10.73;;;;;;;;;;5096308;28;20427;-73
2021/12/22 02:52:56;;;;;;;19.40;12.00;;;;;;;;;;5096956;28;20409;-74
2021/12/22 02:55:29;;;;;;;15.53;11.23;;;;;;;;;;5096779;28;20400;-73
2021/12/22 02:57:59;;;;;;;16.37;11.03;;;;;;;;;;5096706;28;20525;-75
2021/12/22 03:00:35;;;;;;;15.90;10.47;;;;;;;;;;5095535;28;20397;-73
2021/12/22 03:05:29;;;;;;;18.23;11.87;;;;;;;;;;5096568;28;20918;-74
2021/12/22 03:07:56;;;;;;;22.63;11.10;;;;;;;;;;5096259;28;20490;-73
2021/12/22 03:10:22;;;;;;;15.77;11.27;;;;;;;;;;5096478;28;20424;-73
2021/12/22 03:12:53;;;;;;;16.70;12.23;;;;;;;;;;5096278;28;20428;-73
2021/12/22 03:15:20;;;;;;;14.10;10.97;;;;;;;;;;5096151;28;20401;-73
2021/12/22 03:17:46;;;;;;;14.50;9.77;;;;;;;;;;5096348;28;20421;-74
2021/12/22 03:20:14;;;;;;;20.53;11.60;;;;;;;;;;5095858;28;20492;-73
2021/12/22 03:22:46;;;;;;;17.80;12.20;;;;;;;;;;5095695;28;20513;-73
2021/12/22 03:25:17;;;;;;;17.60;12.20;;;;;;;;;;5111597;28;20464;-73
2021/12/22 03:27:50;;;;;;;18.53;11.00;;;;;;;;;;5096118;28;20473;-74
2021/12/22 03:30:17;;;;;;;17.87;10.80;;;;;;;;;;5096020;28;20428;-74
2021/12/22 03:32:44;;;;;;;18.00;11.80;;;;;;;;;;5096307;28;20454;-74
2021/12/22 03:35:16;;;;;;;19.93;11.00;;;;;;;;;;5095696;28;20455;-74
2021/12/22 03:37:42;;;;;;;14.00;10.60;;;;;;;;;;5095951;28;20396;-74
2021/12/22 03:40:08;;;;;;;13.30;10.47;;;;;;;;;;5095651;28;20441;-74
2021/12/22 03:42:34;;;;;;;15.23;11.00;;;;;;;;;;5095452;28;20420;-73
2021/12/22 03:45:00;;;;;;;14.00;10.00;;;;;;;;;;5095399;28;20431;-73
2021/12/22 03:47:26;;;;;;;22.43;11.30;;;;;;;;;;5095704;28;20448;-75
2021/12/22 03:49:52;;;;;;;13.97;9.97;;;;;;;;;;5095710;28;20420;-74
2021/12/22 03:52:18;;;;;;;18.20;11.47;;;;;;;;;;5095555;28;20413;-74
2021/12/22 03:54:44;;;;;;;16.60;11.77;;;;;;;;;;5095225;28;20828;-75
2021/12/22 03:57:10;;;;;;;15.47;12.33;;;;;;;;;;5095615;28;20504;-75
2021/12/22 03:59:36;;;;;;;18.00;12.90;;;;;;;;;;5095474;28;20409;-75
2021/12/22 04:02:03;;;;;;;16.73;11.77;;;;;;;;;;5095445;28;20833;-76
2021/12/22 04:04:29;;;;;;;16.40;11.20;;;;;;;;;;5095081;28;20508;-75
2021/12/22 04:06:55;;;;;;;15.97;11.60;;;;;;;;;;5095091;28;20912;-75
2021/12/22 04:09:26;;;;;;;16.20;11.73;;;;;;;;;;5095227;28;20435;-74
2021/12/22 04:11:53;;;;;;;13.60;10.30;;;;;;;;;;5095081;28;20389;-73
2021/12/22 04:14:19;;;;;;;21.33;11.10;;;;;;;;;;5095988;28;20412;-75
2021/12/22 04:16:45;;;;;;;16.50;10.23;;;;;;;;;;5094855;28;20423;-75
2021/12/22 04:22:15;;;;;;;15.50;11.80;;;;;;;;;;5094875;28;20388;-76
2021/12/22 04:24:41;;;;;;;15.90;11.17;;;;;;;;;;5094713;28;20967;-74
2021/12/22 04:27:07;;;;;;;16.33;10.53;;;;;;;;;;5094840;28;20408;-74
2021/12/22 04:29:33;;;;;;;20.37;11.67;;;;;;;;;;5094490;28;20470;-73
2021/12/22 04:31:59;;;;;;;16.90;10.33;;;;;;;;;;5094795;28;20412;-75
2021/12/22 04:34:25;;;;;;;12.77;9.90;;;;;;;;;;5094030;28;20417;-74
2021/12/22 04:36:51;;;;;;;19.10;11.47;;;;;;;;;;5093996;28;20926;-73
2021/12/22 04:39:17;;;;;;;21.70;12.23;;;;;;;;;;5094692;28;20440;-75
2021/12/22 04:41:43;;;;;;;17.97;10.80;;;;;;;;;;5094393;28;20896;-74
2021/12/22 04:44:09;;;;;;;18.37;12.23;;;;;;;;;;5094239;28;20468;-75
2021/12/22 04:46:35;;;;;;;17.43;11.33;;;;;;;;;;5094479;28;20822;-74
2021/12/22 04:49:01;;;;;;;17.93;11.60;;;;;;;;;;5094234;28;20416;-75
2021/12/22 04:51:30;;;;;;;18.63;11.63;;;;;;;;;;5094489;28;20496;-75
2021/12/22 04:54:04;;;;;;;20.00;13.00;;;;;;;;;;5093982;28;20838;-75
2021/12/22 04:56:30;;;;;;;16.87;12.47;;;;;;;;;;5094479;28;20420;-74
2021/12/22 04:58:56;;;;;;;17.37;12.00;;;;;;;;;;5093930;28;20440;-75
2021/12/22 05:01:22;;;;;;;17.37;11.70;;;;;;;;;;5093988;28;20415;-74
2021/12/22 05:03:48;;;;;;;16.80;11.90;;;;;;;;;;5093980;28;20461;-73
2021/12/22 05:06:14;;;;;;;17.63;12.10;;;;;;;;;;5094257;28;20967;-73
2021/12/22 05:08:40;;;;;;;15.70;11.73;;;;;;;;;;5094101;28;20423;-73
2021/12/22 05:11:06;;;;;;;13.53;10.70;;;;;;;;;;5093772;28;20459;-74
2021/12/22 05:13:35;;;;;;;15.97;10.43;;;;;;;;;;5093843;28;20421;-73
2021/12/22 05:16:03;;;;;;;14.70;10.40;;;;;;;;;;5094073;28;20425;-73
2021/12/22 05:19:14;;;;;;;20.00;11.70;;;;;;;;;;5094771;28;20494;-74
2021/12/22 05:21:21;;;;;;;17.63;10.80;;;;;;;;;;5090596;28;20432;-73
2021/12/22 05:23:47;;;;;;;21.07;12.90;;;;;;;;;;5093607;28;20468;-73
2021/12/22 05:26:13;;;;;;;16.00;11.80;;;;;;;;;;5093647;28;20946;-74
2021/12/22 05:31:43;;;;;;;13.93;11.27;;;;;;;;;;5093590;28;20908;-73
2021/12/22 05:34:09;;;;;;;19.53;12.27;;;;;;;;;;5093741;28;20421;-74
2021/12/22 05:36:35;;;;;;;19.13;11.87;;;;;;;;;;5109029;28;20447;-73
2021/12/22 05:39:01;;;;;;;17.50;10.67;;;;;;;;;;5093259;28;20511;-74
2021/12/22 05:41:27;;;;;;;14.90;11.40;;;;;;;;;;5093910;28;20424;-73
2021/12/22 05:43:53;;;;;;;17.93;12.10;;;;;;;;;;5093752;28;20464;-74
2021/12/22 05:46:19;;;;;;;12.80;10.00;;;;;;;;;;5092995;28;20409;-73
2021/12/22 05:48:48;;;;;;;16.53;10.23;;;;;;;;;;5093226;28;20424;-75
2021/12/22 05:51:14;;;;;;;14.37;11.23;;;;;;;;;;5093457;28;20445;-74
2021/12/22 05:53:40;;;;;;;15.27;10.27;;;;;;;;;;5093197;28;21006;-74
2021/12/22 05:56:06;;;;;;;12.00;9.20;;;;;;;;;;5093771;28;20942;-73
2021/12/22 05:58:32;;;;;;;16.20;11.30;;;;;;;;;;5093168;28;20424;-74
2021/12/22 06:00:57;;;;;;;17.37;11.30;;;;;;;;;;5093632;28;20416;-74
2021/12/22 06:03:24;;;;;;;17.00;10.30;;;;;;;;;;5092965;28;20460;-73
2021/12/22 06:05:49;;;;;;;17.10;11.30;;;;;;;;;;5093442;28;20511;-73
2021/12/22 06:08:16;;;;;;;16.53;11.10;;;;;;;;;;5092906;28;20437;-74
2021/12/22 06:10:42;;;;;;;15.00;11.83;;;;;;;;;;5093088;28;20416;-74
2021/12/22 06:13:09;;;;;;;19.00;11.70;;;;;;;;;;5093027;28;20404;-74
2021/12/22 06:15:35;;;;;;;12.97;10.03;;;;;;;;;;5093310;28;20417;-75
2021/12/22 06:18:02;;;;;;;13.20;10.90;;;;;;;;;;5093285;28;20764;-74
2021/12/22 06:20:29;;;;;;;14.70;12.03;;;;;;;;;;5093194;28;20421;-74
2021/12/22 06:22:55;;;;;;;14.53;11.03;;;;;;;;;;5092804;28;20470;-74
2021/12/22 06:25:21;;;;;;;19.33;12.20;;;;;;;;;;5093145;28;20427;-74
2021/12/22 06:27:48;;;;;;;16.77;11.47;;;;;;;;;;5092870;28;20516;-74
2021/12/22 06:30:14;;;;;;;18.43;11.97;;;;;;;;;;5093053;28;20497;-73
2021/12/22 06:32:40;;;;;;;18.97;11.80;;;;;;;;;;5092702;28;20900;-74
2021/12/22 06:35:07;;;;;;;20.70;13.70;;;;;;;;;;5092967;28;20416;-73
2021/12/22 06:37:33;;;;;;;17.13;12.93;;;;;;;;;;5092724;28;20416;-73
2021/12/22 06:39:59;;;;;;;12.40;10.63;;;;;;;;;;5092937;28;20409;-74
2021/12/22 06:42:25;;;;;;;16.17;11.33;;;;;;;;;;5093150;28;20961;-75
2021/12/22 06:44:51;;;;;;;19.13;12.20;;;;;;;;;;5092631;28;20824;-73
2021/12/22 06:47:18;;;;;;;17.60;11.40;;;;;;;;;;5092707;28;20516;-73
2021/12/22 06:49:44;;;;;;;16.97;12.00;;;;;;;;;;5092928;28;20417;-73
2021/12/22 06:52:10;;;;;;;19.57;12.70;;;;;;;;;;5092715;28;20413;-75
2021/12/22 06:54:36;;;;;;;21.37;12.47;;;;;;;;;;5092522;28;20563;-73
2021/12/22 06:57:02;;;;;;;17.53;12.23;;;;;;;;;;5092778;28;20408;-74
2021/12/22 06:59:28;;;;;;;15.67;12.77;;;;;;;;;;5094966;28;20451;-74
2021/12/22 07:01:54;;;;;;;16.60;11.80;;;;;;;;;;5096375;28;20883;-74
2021/12/22 07:04:20;;;;;;;15.70;11.40;;;;;;;;;;5096372;28;20961;-75
2021/12/22 07:06:46;;;;;;;16.90;12.30;;;;;;;;;;5096525;28;20428;-74
2021/12/22 07:09:13;;;;;;;17.50;12.40;;;;;;;;;;5096342;28;20425;-75
2021/12/22 07:11:39;;;;;;;18.53;11.47;;;;;;;;;;5096172;28;20454;-74
2021/12/22 07:14:07;;;;;;;18.77;11.70;;;;;;;;;;5096395;28;20431;-73
2021/12/22 07:16:33;;;;;;;12.40;10.30;;;;;;;;;;5096004;28;20409;-73
2021/12/22 07:18:59;;;;;;;20.40;12.17;;;;;;;;;;5095958;28;20424;-73
2021/12/22 07:21:25;;;;;;;15.20;11.33;;;;;;;;;;5095934;28;20411;-74
2021/12/22 07:23:51;;;;;;;17.83;12.70;;;;;;;;;;5096129;28;20828;-73
2021/12/22 07:26:17;;;;;;;23.97;14.97;;;;;;;;;;5096102;28;20404;-73
2021/12/22 07:28:45;;;;;;;20.80;12.60;;;;;;;;;;5095944;28;20515;-73
2021/12/22 07:31:11;;;;;;;20.10;12.47;;;;;;;;;;5095604;28;20417;-73
2021/12/22 07:33:37;;;;;;;14.10;11.40;;;;;;;;;;5095786;28;20420;-73
2021/12/22 07:36:05;;;;;;;18.77;12.67;;;;;;;;;;5095841;28;20413;-73
2021/12/22 07:38:35;;;;;;;20.33;13.50;;;;;;;;;;5095597;28;20781;-73
2021/12/22 07:41:01;;;;;;;24.10;14.17;;;;;;;;;;5096041;28;20510;-74
2021/12/22 07:43:27;;;;;;;17.33;12.20;;;;;;;;;;5095509;28;20517;-74
2021/12/22 07:45:54;;;;;;;18.27;12.40;;;;;;;;;;5095687;28;20750;-73
2021/12/22 07:48:20;;;;;;;17.47;11.97;;;;;;;;;;5095311;28;20453;-75
2021/12/22 07:50:46;;;;;;;19.13;13.03;;;;;;;;;;5095761;28;20408;-74
2021/12/22 07:53:12;;;;;;;18.53;13.00;;;;;;;;;;5095348;28;20530;-74
2021/12/22 07:55:38;;;;;;;21.07;12.47;;;;;;;;;;5095421;28;20447;-73
2021/12/22 07:58:04;;;;;;;23.00;13.17;;;;;;;;;;5096001;28;20444;-74
2021/12/22 08:00:30;;;;;;;22.00;14.73;;;;;;;;;;5094018;28;20857;-75
2021/12/22 08:02:56;;;;;;;25.10;13.07;;;;;;;;;;5095707;28;20467;-74
2021/12/22 08:05:22;;;;;;;18.70;12.77;;;;;;;;;;5095477;28;20515;-74
2021/12/22 08:07:48;;;;;;;22.43;12.63;;;;;;;;;;5095411;28;20413;-73
2021/12/22 08:10:14;;;;;;;23.77;14.80;;;;;;;;;;5095362;28;20421;-73
2021/12/22 08:12:40;;;;;;;20.70;13.50;;;;;;;;;;5094787;28;20923;-74
2021/12/22 08:15:07;;;;;;;24.37;12.93;;;;;;;;;;5094618;28;20421;-73
2021/12/22 08:17:34;;;;;;;22.10;12.03;;;;;;;;;;5094780;28;20409;-73
2021/12/22 08:20:00;;;;;;;20.70;13.83;;;;;;;;;;5095091;28;20425;-73
2021/12/22 08:22:27;;;;;;;21.33;13.23;;;;;;;;;;5094489;28;20843;-73
2021/12/22 08:24:53;;;;;;;24.77;14.73;;;;;;;;;;5094977;28;20525;-73
2021/12/22 08:27:21;;;;;;;19.27;13.20;;;;;;;;;;5110110;28;20417;-74
2021/12/22 08:29:47;;;;;;;20.33;13.53;;;;;;;;;;5095535;28;20437;-73
2021/12/22 08:32:14;;;;;;;20.90;13.70;;;;;;;;;;5094639;28;20462;-75
2021/12/22 08:34:41;;;;;;;21.57;13.53;;;;;;;;;;5095205;28;20423;-75
2021/12/22 08:39:53;;;;;;;20.20;13.40;;;;;;;;;;5094834;28;20447;-75
2021/12/22 08:42:19;;;;;;;18.10;12.80;;;;;;;;;;5094425;28;20412;-74
2021/12/22 08:44:46;;;;;;;27.53;16.33;;;;;;;;;;5094403;28;20478;-73
2021/12/22 08:47:12;;;;;;;21.23;12.50;;;;;;;;;;5094089;28;20450;-74
2021/12/22 08:49:39;;;;;;;21.30;14.97;;;;;;;;;;5094470;28;20424;-75
2021/12/22 08:52:05;;;;;;;18.57;12.53;;;;;;;;;;5095035;28;20415;-74
2021/12/22 08:54:31;;;;;;;20.97;11.83;;;;;;;;;;5093863;28;20831;-75
2021/12/22 08:56:57;;;;;;;27.10;14.37;;;;;;;;;;5093868;28;20420;-73
2021/12/22 08:59:24;;;;;;;23.40;14.03;;;;;;;;;;5109652;28;20416;-75
2021/12/22 09:01:51;;;;;;;25.10;14.53;;;;;;;;;;5093694;28;20767;-75
2021/12/22 09:04:19;;;;;;;23.60;17.20;;;;;;;;;;5093569;28;20963;-74
2021/12/22 09:06:45;;;;;;;26.63;13.53;;;;;;;;;;5093604;28;20844;-75
2021/12/22 09:09:11;;;;;;;23.07;13.63;;;;;;;;;;5093788;28;20477;-74
2021/12/22 09:11:38;;;;;;;31.50;18.77;;;;;;;;;;5093585;28;20500;-75
2021/12/22 09:14:06;;;;;;;23.47;15.17;;;;;;;;;;5093926;28;20421;-75
2021/12/22 09:16:33;;;;;;;28.03;15.57;;;;;;;;;;5093432;28;20413;-75
2021/12/22 09:18:59;;;;;;;34.17;20.17;;;;;;;;;;5093917;28;20421;-73
2021/12/22 09:21:25;;;;;;;26.50;13.40;;;;;;;;;;5092762;28;20409;-74
2021/12/22 09:23:51;;;;;;;25.50;14.30;;;;;;;;;;5093099;28;20472;-73
2021/12/22 09:26:17;;;;;;;19.40;13.10;;;;;;;;;;5093255;28;20417;-74
2021/12/22 09:28:43;;;;;;;15.80;11.00;;;;;;;;;;5093385;28;20518;-74
2021/12/22 09:31:09;;;;;;;18.97;11.70;;;;;;;;;;5093591;28;20416;-74
2021/12/22 09:33:35;;;;;;;16.37;12.33;;;;;;;;;;5093366;28;20428;-75
2021/12/22 09:36:02;;;;;;;19.70;12.13;;;;;;;;;;5093137;28;20413;-75
2021/12/22 09:38:28;;;;;;;18.27;12.70;;;;;;;;;;5093213;28;20502;-74
2021/12/22 09:40:54;;;;;;;19.50;13.10;;;;;;;;;;5093326;28;20416;-75
2021/12/22 09:43:23;;;;;;;19.30;13.10;;;;;;;;;;5093143;28;21021;-75
2021/12/22 09:45:56;;;;;;;40.33;22.47;;;;;;;;;;5093005;28;20477;-74
2021/12/22 09:48:36;;;;;;;22.47;14.47;;;;;;;;;;5093710;28;20404;-74
2021/12/22 09:53:31;;;;;;;21.70;14.37;;;;;;;;;;5093264;28;20901;-75
2021/12/22 09:56:01;;;;;;;16.57;11.90;;;;;;;;;;5091732;28;20417;-76
2021/12/22 09:58:27;;;;;;;17.33;11.57;;;;;;;;;;5108670;28;20424;-75
2021/12/22 10:00:53;;;;;;;22.03;11.80;;;;;;;;;;5108661;28;20424;-74
2021/12/22 10:03:20;;;;;;;16.23;11.50;;;;;;;;;;5093139;28;20952;-76
2021/12/22 10:05:47;;;;;;;14.87;11.37;;;;;;;;;;5093247;28;20428;-73
2021/12/22 10:08:17;;;;;;;17.10;12.83;;;;;;;;;;5093037;28;20416;-75
2021/12/22 10:10:45;;;;;;;16.00;10.57;;;;;;;;;;5109275;28;20909;-74
2021/12/22 10:13:13;;;;;;;13.37;10.43;;;;;;;;;;5092851;28;20417;-75
2021/12/22 10:15:39;;;;;;;20.27;12.87;;;;;;;;;;5108363;28;20432;-75
2021/12/22 10:18:10;;;;;;;18.33;12.13;;;;;;;;;;5092787;28;20417;-75
2021/12/22 10:20:37;;;;;;;14.20;11.47;;;;;;;;;;5108397;28;20790;-75
2021/12/22 10:23:17;;;;;;;18.53;12.40;;;;;;;;;;5093278;28;20468;-74
2021/12/22 10:25:44;;;;;;;14.43;10.33;;;;;;;;;;5092824;28;20424;-73
2021/12/22 10:28:17;;;;;;;19.33;11.30;;;;;;;;;;5092926;28;20412;-73
2021/12/22 10:30:44;;;;;;;21.13;12.47;;;;;;;;;;5093151;28;20400;-74
2021/12/22 10:33:12;;;;;;;26.27;10.97;;;;;;;;;;5094742;28;20413;-73
2021/12/22 10:35:39;;;;;;;14.73;12.30;;;;;;;;;;5095645;28;20420;-74
2021/12/22 10:38:06;;;;;;;18.87;12.40;;;;;;;;;;5096868;28;20414;-75
2021/12/22 10:40:36;;;;;;;16.20;11.57;;;;;;;;;;5096676;28;20416;-73
2021/12/22 10:43:03;;;;;;;21.43;12.33;;;;;;;;;;5096490;28;20944;-73
2021/12/22 10:45:31;;;;;;;19.27;11.90;;;;;;;;;;5096445;28;20431;-73
2021/12/22 10:50:46;;;;;;;20.50;12.53;;;;;;;;;;5096508;28;20416;-73
2021/12/22 10:53:13;;;;;;;17.20;12.07;;;;;;;;;;5096589;28;20460;-73
2021/12/22 10:55:40;;;;;;;21.13;12.90;;;;;;;;;;5096512;28;20404;-74
2021/12/22 10:58:16;;;;;;;26.03;11.50;;;;;;;;;;5097054;28;20470;-75
2021/12/22 11:00:43;;;;;;;19.43;13.50;;;;;;;;;;5096408;28;20412;-74
2021/12/22 11:03:13;;;;;;;23.90;12.47;;;;;;;;;;5096553;28;20537;-75
2021/12/22 11:05:46;;;;;;;20.50;12.67;;;;;;;;;;5096338;28;20872;-74
2021/12/22 11:08:38;;;;;;;19.30;13.23;;;;;;;;;;5096245;28;20916;-73
2021/12/22 11:11:14;;;;;;;22.00;13.20;;;;;;;;;;5093444;28;21002;-74
2021/12/22 11:13:41;;;;;;;23.43;12.43;;;;;;;;;;5095993;28;20436;-74
2021/12/22 11:16:14;;;;;;;19.67;11.67;;;;;;;;;;5096103;28;20424;-74
2021/12/22 11:18:40;;;;;;;19.37;11.63;;;;;;;;;;5095944;28;20417;-74
2021/12/22 11:21:12;;;;;;;13.87;11.07;;;;;;;;;;5095740;28;20401;-73
2021/12/22 11:23:38;;;;;;;17.20;11.47;;;;;;;;;;5111654;28;20459;-74
2021/12/22 11:26:04;;;;;;;17.90;11.80;;;;;;;;;;5095638;28;20424;-73
2021/12/22 11:28:34;;;;;;;19.37;11.10;;;;;;;;;;5096274;28;20401;-74
2021/12/22 11:31:02;;;;;;;16.47;10.60;;;;;;;;;;5096182;28;20479;-74
2021/12/22 11:33:28;;;;;;;16.63;10.73;;;;;;;;;;5095720;28;20809;-74
2021/12/22 11:35:57;;;;;;;14.30;11.20;;;;;;;;;;5095633;28;20470;-74
2021/12/22 11:38:25;;;;;;;21.80;12.13;;;;;;;;;;5095552;28;20896;-72
2021/12/22 11:41:06;;;;;;;16.70;10.97;;;;;;;;;;5095621;28;20432;-73
2021/12/22 11:43:32;;;;;;;17.40;11.57;;;;;;;;;;5095562;28;20467;-73
2021/12/22 11:45:58;;;;;;;17.10;11.53;;;;;;;;;;5095014;28;20416;-73
2021/12/22 11:48:24;;;;;;;15.97;10.30;;;;;;;;;;5095383;28;20424;-73
2021/12/22 11:50:50;;;;;;;13.13;10.10;;;;;;;;;;5095218;28;20915;-74
2021/12/22 11:53:16;;;;;;;18.83;11.50;;;;;;;;;;5111138;28;20465;-74
2021/12/22 11:55:46;;;;;;;18.10;11.43;;;;;;;;;;5095014;28;20445;-74
2021/12/22 11:58:12;;;;;;;17.23;11.47;;;;;;;;;;5095377;28;20413;-75
2021/12/22 12:00:39;;;;;;;16.07;10.90;;;;;;;;;;5095508;28;20907;-74
2021/12/22 12:03:20;;;;;;;23.03;12.00;;;;;;;;;;5095349;28;20490;-73
2021/12/22 12:06:06;;;;;;;14.10;10.30;;;;;;;;;;5094951;28;20413;-74
2021/12/22 12:08:37;;;;;;;15.77;11.13;;;;;;;;;;5095115;28;20405;-73
2021/12/22 12:11:04;;;;;;;29.80;10.70;;;;;;;;;;5095376;28;20404;-73
2021/12/22 12:13:37;;;;;;;17.63;12.10;;;;;;;;;;5111362;28;20765;-75
2021/12/22 12:21:52;;;;;;;12.80;9.57;;;;;;;;;;5094634;28;20405;-73
2021/12/22 12:24:37;;;;;;;13.33;9.10;;;;;;;;;;5094691;28;20475;-73
2021/12/22 12:27:22;;;;;;;14.73;9.70;;;;;;;;;;5094879;28;20488;-73
2021/12/22 12:30:03;;;;;;;13.30;9.60;;;;;;;;;;5094343;28;20447;-73
2021/12/22 12:32:41;;;;;;;11.37;8.27;;;;;;;;;;5095322;28;20416;-75
2021/12/22 12:35:20;;;;;;;10.90;8.50;;;;;;;;;;5094083;28;20408;-72
2021/12/22 12:37:58;;;;;;;27.50;16.13;;;;;;;;;;5094678;28;20409;-74
2021/12/22 12:40:24;;;;;;;14.53;10.40;;;;;;;;;;5094127;28;20424;-74
2021/12/22 12:43:00;;;;;;;13.97;11.50;;;;;;;;;;5094102;28;20417;-74
2021/12/22 12:45:45;;;;;;;12.73;9.37;;;;;;;;;;5094146;28;20428;-74
2021/12/22 12:48:27;;;;;;;9.13;8.07;;;;;;;;;;5093844;28;20396;-74
2021/12/22 12:51:12;;;;;;;9.80;8.33;;;;;;;;;;5093686;28;20558;-76
2021/12/22 12:53:42;;;;;;;9.87;8.87;;;;;;;;;;5094033;28;20464;-76
2021/12/22 12:56:09;;;;;;;15.50;10.53;;;;;;;;;;5092657;28;20409;-74
2021/12/22 12:58:50;;;;;;;19.10;10.53;;;;;;;;;;5093973;28;20408;-77
2021/12/22 13:01:16;;;;;;;15.10;10.77;;;;;;;;;;5109549;28;20400;-74
2021/12/22 13:03:49;;;;;;;11.80;10.00;;;;;;;;;;5094644;28;20472;-76
2021/12/22 13:06:15;;;;;;;11.87;9.10;;;;;;;;;;5093844;28;20867;-75
2021/12/22 13:08:41;;;;;;;14.70;9.97;;;;;;;;;;5094102;28;20420;-74
2021/12/22 13:11:12;;;;;;;10.40;8.90;;;;;;;;;;5094008;28;20404;-75
2021/12/22 13:15:45;;;;;;;16.17;9.37;;;;;;;;;;5093813;28;20412;-76
2021/12/22 13:16:24;;;;;;;12.83;8.80;;;;;;;;;;5093648;28;20416;-74
2021/12/22 13:21:53;;;;;;;14.27;9.10;;;;;;;;;;5094043;28;20418;-73
2021/12/22 13:24:20;;;;;;;14.00;9.27;;;;;;;;;;5093418;28;20468;-74
2021/12/22 13:26:48;;;;;;;12.77;9.37;;;;;;;;;;5094305;28;20432;-73
2021/12/22 13:29:14;;;;;;;20.33;9.27;;;;;;;;;;5093202;28;20920;-74
2021/12/22 13:31:41;;;;;;;11.43;9.23;;;;;;;;;;5094050;28;20419;-75
2021/12/22 13:34:06;;;;;;;13.37;10.37;;;;;;;;;;5093284;28;20425;-74
2021/12/22 13:36:33;;;;;;;20.03;10.97;;;;;;;;;;5093408;28;20751;-76
2021/12/22 13:39:01;;;;;;;14.67;9.83;;;;;;;;;;5093446;28;20408;-76
2021/12/22 13:41:30;;;;;;;19.20;11.00;;;;;;;;;;5109152;28;20416;-74
2021/12/22 13:43:57;;;;;;;14.20;10.47;;;;;;;;;;5108418;28;20468;-75
2021/12/22 13:46:23;;;;;;;14.07;9.97;;;;;;;;;;5093495;28;20429;-75
2021/12/22 13:48:49;;;;;;;15.07;10.00;;;;;;;;;;5093254;28;20500;-74
2021/12/22 13:51:20;;;;;;;11.97;10.30;;;;;;;;;;5092913;28;20484;-75
2021/12/22 13:53:46;;;;;;;15.17;10.57;;;;;;;;;;5092580;28;21023;-73
2021/12/22 13:56:14;;;;;;;15.37;9.97;;;;;;;;;;5093256;28;20771;-76
2021/12/22 13:58:45;;;;;;;11.57;9.63;;;;;;;;;;5108528;28;20960;-77
2021/12/22 14:01:12;;;;;;;10.37;8.60;;;;;;;;;;5093053;28;20893;-75
2021/12/22 14:03:38;;;;;;;13.67;8.30;;;;;;;;;;5092857;28;20471;-73
2021/12/22 14:06:08;;;;;;;11.30;10.10;;;;;;;;;;5093269;28;20553;-76
2021/12/22 14:08:35;;;;;;;13.50;9.07;;;;;;;;;;5098051;28;20416;-75
2021/12/22 14:11:01;;;;;;;11.83;9.23;;;;;;;;;;5099975;28;20955;-75
2021/12/22 14:13:30;;;;;;;12.23;8.70;;;;;;;;;;5100257;28;20417;-74
2021/12/22 14:15:57;;;;;;;12.60;9.37;;;;;;;;;;5099875;28;20412;-75
2021/12/22 14:18:36;;;;;;;10.97;8.60;;;;;;;;;;5099733;28;20515;-74
2021/12/22 14:21:03;;;;;;;14.80;9.03;;;;;;;;;;5099971;28;20421;-74
2021/12/22 14:23:29;;;;;;;11.10;9.57;;;;;;;;;;5099443;28;20551;-72
2021/12/22 14:26:06;;;;;;;15.97;9.53;;;;;;;;;;5099559;28;20448;-75
2021/12/22 14:28:35;;;;;;;13.37;9.03;;;;;;;;;;5099407;28;20416;-75
2021/12/22 14:31:07;;;;;;;16.70;9.43;;;;;;;;;;5099423;28;20829;-76
2021/12/22 14:33:33;;;;;;;12.70;9.63;;;;;;;;;;5099665;28;20416;-83
2021/12/22 14:36:02;;;;;;;10.73;8.93;;;;;;;;;;5099709;28;20412;-75
2021/12/22 14:38:32;;;;;;;12.00;9.60;;;;;;;;;;5099198;28;20916;-73
2021/12/22 14:41:00;;;;;;;13.80;10.43;;;;;;;;;;5099798;28;20409;-73
2021/12/22 14:43:34;;;;;;;11.47;10.00;;;;;;;;;;5099234;28;21003;-74
2021/12/22 14:46:15;;;;;;;13.00;10.63;;;;;;;;;;5115221;28;20461;-73
2021/12/22 14:48:43;;;;;;;14.07;9.13;;;;;;;;;;5099243;28;20959;-73
2021/12/22 14:51:18;;;;;;;10.17;9.13;;;;;;;;;;5099628;28;20746;-74
2021/12/22 14:53:49;;;;;;;15.20;9.20;;;;;;;;;;5099176;28;20554;-74
2021/12/22 14:56:23;;;;;;;11.60;7.80;;;;;;;;;;5099343;28;20468;-75